createdAt,value
2022-08-17T00:00:42.926Z,19.98
2022-08-17T00:03:10.046Z,20.01
2022-08-17T00:05:42.540Z,19.90
2022-08-17T00:08:11.254Z,19.66
2022-08-17T00:10:40.905Z,19.65
2022-08-17T00:13:15.914Z,19.94
2022-08-17T00:15:44.869Z,19.95
2022-08-17T00:19:01.011Z,19.73
2022-08-17T00:21:04.067Z,19.69
2022-08-17T00:23:39.732Z,19.93
2022-08-17T00:26:38.782Z,20.11
2022-08-17T00:29:07.812Z,20.14
2022-08-17T00:31:36.655Z,20.15
2022-08-17T00:34:05.429Z,19.71
2022-08-17T00:36:33.855Z,19.67
2022-08-17T00:39:02.084Z,19.86
2022-08-17T00:41:31.535Z,19.94
2022-08-17T00:44:02.494Z,20.04
2022-08-17T00:46:33.682Z,19.95
2022-08-17T00:49:02.112Z,19.94
2022-08-17T00:51:34.644Z,20.00
2022-08-17T00:54:09.347Z,19.84
2022-08-17T00:56:42.927Z,19.90
2022-08-17T00:59:12.577Z,19.67
2022-08-17T01:01:41.820Z,19.56
2022-08-17T01:04:11.769Z,19.46
2022-08-17T01:06:41.198Z,19.53
2022-08-17T01:09:09.828Z,19.77
2022-08-17T01:11:40.600Z,19.84
2022-08-17T01:14:09.343Z,19.91
2022-08-17T01:16:38.428Z,19.98
2022-08-17T01:19:10.377Z,19.94
2022-08-17T01:21:45.128Z,19.62
2022-08-17T01:24:14.686Z,19.18
2022-08-17T01:26:44.141Z,19.24
2022-08-17T01:29:13.624Z,19.29
2022-08-17T01:31:45.541Z,19.21
2022-08-17T01:34:15.688Z,19.21
2022-08-17T01:36:45.938Z,19.36
2022-08-17T01:39:30.602Z,19.46
2022-08-17T01:42:04.966Z,19.21
2022-08-17T01:44:33.250Z,18.94
2022-08-17T01:47:01.682Z,18.77
2022-08-17T01:49:30.542Z,18.81
2022-08-17T01:52:07.040Z,18.90
2022-08-17T01:54:37.457Z,18.83
2022-08-17T01:57:06.069Z,18.62
2022-08-17T01:59:34.833Z,18.59
2022-08-17T02:02:04.836Z,18.77
2022-08-17T02:04:33.036Z,18.94
2022-08-17T02:07:01.098Z,19.11
2022-08-17T02:09:31.984Z,19.11
2022-08-17T02:12:37.991Z,18.97
2022-08-17T02:14:54.554Z,18.90
2022-08-17T02:17:22.563Z,18.86
2022-08-17T02:19:50.769Z,19.03
2022-08-17T02:22:19.364Z,18.91
2022-08-17T02:25:01.151Z,18.59
2022-08-17T02:27:33.177Z,18.79
2022-08-17T02:30:01.194Z,18.90
2022-08-17T02:32:29.425Z,18.96
2022-08-17T02:34:58.026Z,18.76
2022-08-17T02:37:26.848Z,18.72
2022-08-17T02:39:57.073Z,18.66
2022-08-17T02:42:31.526Z,18.48
2022-08-17T02:45:01.776Z,18.37
2022-08-17T02:47:29.799Z,18.56
2022-08-17T02:49:58.833Z,18.59
2022-08-17T02:52:42.387Z,18.41
2022-08-17T02:55:15.065Z,18.42
2022-08-17T02:57:43.659Z,18.70
2022-08-17T03:00:16.797Z,18.80
2022-08-17T03:02:46.415Z,18.80
2022-08-17T03:05:17.683Z,18.62
2022-08-17T03:07:45.821Z,18.56
2022-08-17T03:10:14.714Z,18.55
2022-08-17T03:12:43.784Z,18.46
2022-08-17T03:15:15.469Z,18.52
2022-08-17T03:17:43.714Z,18.55
2022-08-17T03:20:13.132Z,18.53
2022-08-17T03:22:53.055Z,18.45
2022-08-17T03:25:25.231Z,18.27
2022-08-17T03:27:53.554Z,18.31
2022-08-17T03:30:23.521Z,18.15
2022-08-17T03:32:54.831Z,17.72
2022-08-17T03:35:26.547Z,17.87
2022-08-17T03:38:00.692Z,18.01
2022-08-17T03:40:36.978Z,17.89
2022-08-17T03:43:19.045Z,17.73
2022-08-17T03:46:19.284Z,17.84
2022-08-17T03:49:12.906Z,18.03
2022-08-17T03:51:58.924Z,18.15
2022-08-17T03:54:44.269Z,18.24
2022-08-17T03:57:12.767Z,17.97
2022-08-17T03:59:41.368Z,17.97
2022-08-17T04:02:16.302Z,18.03
2022-08-17T04:04:45.402Z,18.24
2022-08-17T04:07:13.412Z,18.12
2022-08-17T04:09:42.811Z,18.11
2022-08-17T04:12:10.809Z,17.93
2022-08-17T04:14:51.976Z,18.12
2022-08-17T04:17:25.682Z,18.34
2022-08-17T04:19:55.017Z,18.22
2022-08-17T04:22:32.312Z,18.24
2022-08-17T04:25:08.609Z,18.01
2022-08-17T04:27:37.056Z,18.20
2022-08-17T04:30:07.458Z,18.31
2022-08-17T04:33:02.273Z,18.29
2022-08-17T04:35:36.445Z,18.22
2022-08-17T04:38:05.133Z,18.15
2022-08-17T04:40:50.801Z,18.24
2022-08-17T04:43:22.552Z,18.37
2022-08-17T04:45:55.853Z,18.48
2022-08-17T04:48:35.471Z,18.46
2022-08-17T04:51:09.911Z,18.42
2022-08-17T04:53:39.284Z,18.48
2022-08-17T04:56:07.766Z,18.49
2022-08-17T04:58:40.264Z,18.79
2022-08-17T05:01:08.797Z,19.04
2022-08-17T05:03:38.365Z,19.17
2022-08-17T05:06:06.731Z,19.28
2022-08-17T05:08:34.882Z,19.12
2022-08-17T05:11:03.165Z,18.87
2022-08-17T05:13:31.290Z,19.19
2022-08-17T05:16:02.136Z,19.32
2022-08-17T05:18:33.025Z,19.48
2022-08-17T05:21:03.768Z,19.49
2022-08-17T05:23:42.025Z,19.42
2022-08-17T05:26:25.840Z,19.34
2022-08-17T05:28:59.596Z,19.41
2022-08-17T05:31:29.787Z,19.56
2022-08-17T05:33:57.994Z,19.49
2022-08-17T05:36:42.985Z,19.67
2022-08-17T05:39:14.399Z,19.59
2022-08-17T05:41:45.732Z,19.65
2022-08-17T05:44:13.738Z,19.73
2022-08-17T05:46:44.617Z,19.94
2022-08-17T05:49:16.050Z,20.03
2022-08-17T05:52:21.778Z,20.14
2022-08-17T05:55:03.534Z,20.28
2022-08-17T05:57:44.799Z,20.25
2022-08-17T06:00:26.450Z,20.26
2022-08-17T06:03:16.529Z,20.33
2022-08-17T06:05:55.418Z,20.28
2022-08-17T06:08:33.994Z,20.26
2022-08-17T06:11:19.854Z,20.29
2022-08-17T06:14:02.511Z,20.24
2022-08-17T06:16:36.728Z,20.03
2022-08-17T06:19:11.102Z,20.24
2022-08-17T06:21:43.479Z,20.33
2022-08-17T06:24:24.460Z,20.40
2022-08-17T06:26:55.697Z,20.49
2022-08-17T06:29:35.369Z,20.67
2022-08-17T06:32:03.745Z,20.81
2022-08-17T06:34:33.901Z,20.73
2022-08-17T06:37:19.698Z,20.70
2022-08-17T06:40:01.683Z,20.81
2022-08-17T06:43:02.398Z,20.98
2022-08-17T06:45:32.609Z,21.11
2022-08-17T06:48:08.563Z,21.11
2022-08-17T06:50:39.989Z,21.14
2022-08-17T06:53:17.830Z,21.02
2022-08-17T06:55:56.981Z,21.19
2022-08-17T06:58:29.760Z,21.22
2022-08-17T07:01:04.005Z,21.42
2022-08-17T07:03:38.028Z,21.34
2022-08-17T07:06:13.185Z,21.46
2022-08-17T07:08:50.440Z,21.71
2022-08-17T07:11:27.240Z,21.81
2022-08-17T07:14:04.729Z,22.11
2022-08-17T07:16:38.464Z,22.19
2022-08-17T07:19:07.370Z,22.26
2022-08-17T07:21:47.821Z,22.26
2022-08-17T07:24:37.377Z,22.46
2022-08-17T07:27:15.177Z,22.52
2022-08-17T07:29:48.084Z,22.55
2022-08-17T07:32:19.408Z,22.75
2022-08-17T07:35:11.201Z,23.04
2022-08-17T07:37:41.650Z,23.16
2022-08-17T07:40:33.439Z,23.25
2022-08-17T07:43:11.449Z,23.45
2022-08-17T07:46:15.588Z,23.38
2022-08-17T07:48:48.558Z,23.66
2022-08-17T07:51:32.188Z,23.98
2022-08-17T07:54:14.597Z,23.98
2022-08-17T07:56:47.076Z,23.88
2022-08-17T07:59:23.844Z,23.88
2022-08-17T08:02:30.135Z,24.05
2022-08-17T08:05:07.205Z,24.44
2022-08-17T08:07:42.679Z,24.73
2022-08-17T08:10:15.443Z,24.95
2022-08-17T08:12:46.130Z,24.83
2022-08-17T08:15:19.426Z,24.68
2022-08-17T08:17:53.155Z,24.92
2022-08-17T08:20:51.338Z,25.18
2022-08-17T08:23:32.638Z,24.87
2022-08-17T08:26:18.641Z,25.07
2022-08-17T08:28:58.014Z,25.09
2022-08-17T08:31:42.175Z,25.37
2022-08-17T08:34:44.535Z,25.30
2022-08-17T08:37:25.016Z,25.53
2022-08-17T08:39:59.658Z,25.46
2022-08-17T08:42:33.420Z,25.84
2022-08-17T08:45:11.087Z,25.97
2022-08-17T08:47:57.392Z,25.91
2022-08-17T08:50:43.943Z,25.80
2022-08-17T08:53:23.592Z,25.84
2022-08-17T08:55:57.185Z,26.04
2022-08-17T08:58:42.068Z,26.18
2022-08-17T09:01:19.909Z,26.71
2022-08-17T09:04:23.376Z,26.98
2022-08-17T09:07:06.100Z,26.70
2022-08-17T09:09:43.256Z,26.53
2022-08-17T09:12:17.943Z,26.44
2022-08-17T09:14:57.058Z,26.37
2022-08-17T09:17:35.605Z,26.32
2022-08-17T09:20:27.174Z,26.49
2022-08-17T09:23:03.919Z,26.91
2022-08-17T09:25:35.643Z,27.05
2022-08-17T09:28:07.082Z,27.29
2022-08-17T09:30:42.242Z,27.15
2022-08-17T09:33:15.963Z,27.02
2022-08-17T09:35:50.601Z,27.25
2022-08-17T09:38:30.430Z,27.50
2022-08-17T09:41:10.004Z,27.68
2022-08-17T09:43:44.367Z,27.74
2022-08-17T09:46:18.216Z,27.68
2022-08-17T09:48:50.411Z,27.64
2022-08-17T09:51:25.636Z,27.85
2022-08-17T09:53:53.685Z,27.92
2022-08-17T09:56:35.060Z,27.89
2022-08-17T09:59:23.549Z,28.12
2022-08-17T10:02:02.569Z,28.08
2022-08-17T10:04:48.891Z,28.33
2022-08-17T10:07:28.930Z,28.51
2022-08-17T10:10:13.567Z,28.49
2022-08-17T10:12:53.153Z,28.88
2022-08-17T10:15:36.715Z,28.94
2022-08-17T10:18:30.567Z,29.34
2022-08-17T10:21:23.679Z,29.44
2022-08-17T10:24:14.579Z,29.08
2022-08-17T10:26:56.864Z,29.31
2022-08-17T10:29:29.739Z,29.51
2022-08-17T10:32:14.559Z,29.19
2022-08-17T10:35:09.515Z,29.40
2022-08-17T10:38:27.100Z,29.22
2022-08-17T10:41:00.916Z,29.60
2022-08-17T10:43:42.636Z,29.65
2022-08-17T10:46:31.808Z,30.32
2022-08-17T10:49:33.249Z,30.06
2022-08-17T10:52:03.576Z,30.33
2022-08-17T10:54:49.257Z,30.60
2022-08-17T10:57:40.063Z,29.84
2022-08-17T11:00:16.090Z,30.02
2022-08-17T11:02:49.902Z,29.93
2022-08-17T11:05:44.140Z,29.53
2022-08-17T11:08:38.690Z,29.55
2022-08-17T11:11:24.404Z,29.49
2022-08-17T11:14:08.892Z,29.84
2022-08-17T11:16:50.260Z,29.81
2022-08-17T11:20:10.391Z,29.13
2022-08-17T11:23:04.541Z,28.99
2022-08-17T11:25:39.605Z,29.13
2022-08-17T11:28:14.665Z,29.31
2022-08-17T11:30:49.168Z,29.20
2022-08-17T11:33:56.227Z,28.82
2022-08-17T11:36:47.882Z,28.72
2022-08-17T11:39:42.357Z,28.87
2022-08-17T11:42:27.731Z,28.75
2022-08-17T11:44:59.828Z,28.69
2022-08-17T11:48:23.612Z,28.72
2022-08-17T11:51:14.244Z,28.85
2022-08-17T11:54:32.812Z,29.27
2022-08-17T11:56:56.933Z,29.71
2022-08-17T11:59:58.651Z,30.08
2022-08-17T12:02:48.137Z,30.36
2022-08-17T12:05:37.859Z,30.44
2022-08-17T12:08:14.798Z,30.22
2022-08-17T12:10:57.802Z,29.88
2022-08-17T12:13:27.425Z,29.99
2022-08-17T12:16:00.446Z,29.92
2022-08-17T12:18:35.491Z,29.80
2022-08-17T12:21:15.464Z,30.15
2022-08-17T12:23:55.388Z,29.86
2022-08-17T12:26:30.210Z,29.67
2022-08-17T12:29:01.846Z,29.40
2022-08-17T12:31:35.555Z,29.36
2022-08-17T12:34:06.095Z,28.87
2022-08-17T12:36:34.839Z,28.78
2022-08-17T12:39:13.899Z,28.64
2022-08-17T12:41:47.961Z,28.41
2022-08-17T12:44:24.227Z,28.35
2022-08-17T12:46:56.763Z,28.40
2022-08-17T12:49:30.950Z,28.40
2022-08-17T12:52:08.938Z,28.29
2022-08-17T12:54:43.428Z,28.27
2022-08-17T12:57:15.319Z,28.13
2022-08-17T12:59:48.594Z,28.15
2022-08-17T13:02:28.336Z,28.17
2022-08-17T13:05:01.518Z,28.04
2022-08-17T13:07:35.079Z,28.08
2022-08-17T13:10:05.459Z,28.06
2022-08-17T13:12:36.387Z,28.04
2022-08-17T13:15:05.233Z,27.99
2022-08-17T13:17:36.606Z,28.02
2022-08-17T13:20:15.852Z,28.22
2022-08-17T13:22:45.120Z,28.40
2022-08-17T13:25:17.715Z,28.98
2022-08-17T13:27:47.413Z,29.06
2022-08-17T13:30:23.845Z,29.25
2022-08-17T13:32:53.881Z,29.43
2022-08-17T13:35:40.339Z,29.05
2022-08-17T13:38:11.177Z,29.27
2022-08-17T13:40:44.367Z,29.01
2022-08-17T13:43:13.327Z,28.77
2022-08-17T13:45:50.825Z,28.77
2022-08-17T13:48:27.678Z,29.05
2022-08-17T13:51:23.938Z,29.08
2022-08-17T13:53:59.297Z,29.20
2022-08-17T13:56:39.364Z,29.31
2022-08-17T13:59:12.347Z,29.54
2022-08-17T14:01:43.482Z,29.82
2022-08-17T14:04:14.354Z,29.77
2022-08-17T14:06:53.172Z,30.01
2022-08-17T14:09:26.474Z,29.67
2022-08-17T14:11:56.920Z,29.33
2022-08-17T14:14:29.282Z,29.23
2022-08-17T14:16:58.199Z,29.29
2022-08-17T14:19:27.258Z,28.72
2022-08-17T14:21:58.823Z,28.95
2022-08-17T14:24:29.908Z,28.64
2022-08-17T14:26:59.156Z,28.49
2022-08-17T14:29:29.336Z,28.72
2022-08-17T14:31:59.122Z,28.90
2022-08-17T14:34:27.226Z,29.38
2022-08-17T14:36:57.576Z,29.95
2022-08-17T14:39:27.008Z,32.58
2022-08-17T14:41:58.333Z,30.47
2022-08-17T14:44:27.256Z,30.27
2022-08-17T14:46:55.222Z,29.61
2022-08-17T14:49:26.811Z,29.61
2022-08-17T14:51:57.387Z,30.40
2022-08-17T14:54:33.910Z,29.98
2022-08-17T14:57:22.611Z,29.47
2022-08-17T14:59:54.663Z,29.33
2022-08-17T15:02:29.840Z,30.69
2022-08-17T15:05:03.270Z,31.29
2022-08-17T15:07:32.905Z,30.96
2022-08-17T15:10:02.156Z,31.34
2022-08-17T15:12:33.588Z,29.65
2022-08-17T15:15:04.577Z,29.47
2022-08-17T15:17:44.397Z,29.23
2022-08-17T15:20:17.957Z,29.19
2022-08-17T15:22:50.058Z,31.36
2022-08-17T15:25:19.588Z,33.88
2022-08-17T15:27:47.752Z,34.40
2022-08-17T15:30:16.679Z,36.18
2022-08-17T15:32:50.779Z,33.13
2022-08-17T15:35:22.097Z,30.76
2022-08-17T15:38:07.990Z,29.77
2022-08-17T15:40:43.193Z,30.02
2022-08-17T15:43:13.985Z,30.82
2022-08-17T15:45:42.254Z,30.91
2022-08-17T15:48:11.344Z,31.20
2022-08-17T15:50:39.715Z,31.38
2022-08-17T15:53:09.675Z,31.64
2022-08-17T15:55:38.664Z,33.22
2022-08-17T15:58:07.186Z,35.46
2022-08-17T16:00:49.368Z,34.92
2022-08-17T16:04:01.240Z,34.04
2022-08-17T16:06:11.007Z,33.51
2022-08-17T16:08:43.622Z,31.36
2022-08-17T16:11:12.906Z,30.02
2022-08-17T16:13:42.693Z,31.22
2022-08-17T16:16:23.649Z,30.12
2022-08-17T16:18:54.538Z,29.75
2022-08-17T16:21:29.623Z,29.40
2022-08-17T16:24:03.556Z,28.60
2022-08-17T16:26:33.183Z,28.63
2022-08-17T16:29:07.171Z,28.26
2022-08-17T16:31:37.958Z,28.75
2022-08-17T16:34:17.549Z,30.63
2022-08-17T16:36:53.700Z,28.99
2022-08-17T16:39:30.763Z,28.82
2022-08-17T16:42:01.497Z,28.56
2022-08-17T16:44:32.012Z,28.65
2022-08-17T16:47:00.991Z,28.68
2022-08-17T16:49:37.344Z,28.69
2022-08-17T16:52:11.025Z,28.85
2022-08-17T16:54:46.202Z,29.23
2022-08-17T16:57:15.951Z,29.31
2022-08-17T16:59:48.050Z,28.96
2022-08-17T17:02:16.856Z,28.65
2022-08-17T17:04:51.958Z,28.90
2022-08-17T17:07:38.890Z,29.01
2022-08-17T17:10:11.642Z,28.90
2022-08-17T17:13:02.208Z,28.57
2022-08-17T17:15:46.755Z,28.57
2022-08-17T17:18:16.532Z,28.65
2022-08-17T17:20:50.453Z,28.44
2022-08-17T17:23:37.664Z,28.27
2022-08-17T17:26:25.117Z,28.12
2022-08-17T17:29:02.910Z,28.09
2022-08-17T17:31:38.298Z,27.80
2022-08-17T17:34:09.299Z,27.70
2022-08-17T17:36:41.588Z,27.37
2022-08-17T17:39:14.439Z,27.43
2022-08-17T17:41:50.075Z,27.50
2022-08-17T17:44:25.500Z,27.42
2022-08-17T17:46:57.855Z,27.27
2022-08-17T17:49:31.462Z,27.12
2022-08-17T17:52:12.293Z,26.95
2022-08-17T17:54:55.048Z,26.73
2022-08-17T17:57:27.244Z,26.51
2022-08-17T18:00:11.094Z,26.41
2022-08-17T18:02:55.482Z,26.22
2022-08-17T18:05:48.435Z,26.02
2022-08-17T18:08:37.191Z,26.04
2022-08-17T18:11:34.941Z,25.99
2022-08-17T18:14:18.990Z,25.98
2022-08-17T18:16:48.123Z,25.91
2022-08-17T18:19:20.033Z,25.81
2022-08-17T18:21:53.313Z,25.70
2022-08-17T18:24:31.602Z,25.77
2022-08-17T18:27:02.742Z,25.78
2022-08-17T18:29:44.902Z,25.84
2022-08-17T18:32:24.313Z,25.80
2022-08-17T18:34:55.214Z,25.73
2022-08-17T18:37:36.943Z,25.82
2022-08-17T18:40:29.298Z,25.89
2022-08-17T18:43:03.337Z,25.92
2022-08-17T18:45:40.855Z,25.67
2022-08-17T18:48:26.829Z,25.51
2022-08-17T18:50:58.406Z,25.26
2022-08-17T18:53:34.318Z,25.05
2022-08-17T18:56:24.169Z,24.99
2022-08-17T18:58:53.227Z,24.85
2022-08-17T19:01:41.486Z,24.81
2022-08-17T19:04:28.543Z,24.80
2022-08-17T19:07:10.684Z,24.70
2022-08-17T19:09:44.235Z,24.68
2022-08-17T19:12:27.348Z,24.68
2022-08-17T19:14:57.559Z,24.64
2022-08-17T19:17:33.299Z,24.47
2022-08-17T19:20:06.370Z,24.47
2022-08-17T19:22:55.703Z,24.36
2022-08-17T19:25:33.558Z,24.30
2022-08-17T19:28:21.917Z,24.15
2022-08-17T19:30:55.829Z,24.09
2022-08-17T19:33:25.548Z,24.05
2022-08-17T19:36:03.574Z,23.87
2022-08-17T19:38:43.107Z,23.71
2022-08-17T19:41:14.501Z,23.63
2022-08-17T19:44:09.083Z,23.81
2022-08-17T19:47:01.007Z,23.66
2022-08-17T19:49:45.623Z,23.73
2022-08-17T19:52:31.612Z,23.53
2022-08-17T19:55:07.464Z,23.42
2022-08-17T19:57:44.950Z,23.41
2022-08-17T20:00:16.722Z,23.41
2022-08-17T20:02:55.525Z,23.22
2022-08-17T20:05:30.166Z,23.26
2022-08-17T20:08:04.992Z,23.16
2022-08-17T20:10:45.235Z,23.19
2022-08-17T20:13:19.846Z,23.20
2022-08-17T20:16:02.422Z,23.00
2022-08-17T20:18:37.729Z,23.04
2022-08-17T20:21:20.036Z,22.91
2022-08-17T20:23:54.226Z,22.88
2022-08-17T20:26:27.311Z,22.71
2022-08-17T20:29:29.518Z,22.87
2022-08-17T20:32:25.248Z,22.74
2022-08-17T20:35:04.491Z,22.67
2022-08-17T20:37:36.278Z,22.77
2022-08-17T20:40:33.484Z,22.70
2022-08-17T20:43:45.634Z,22.64
2022-08-17T20:46:26.838Z,22.53
2022-08-17T20:48:57.929Z,22.39
2022-08-17T20:51:30.487Z,22.45
2022-08-17T20:54:24.077Z,22.39
2022-08-17T20:56:57.405Z,22.16
2022-08-17T21:00:15.383Z,22.09
2022-08-17T21:02:45.468Z,22.09
2022-08-17T21:05:38.840Z,22.04
2022-08-17T21:08:15.986Z,22.15
2022-08-17T21:10:47.359Z,22.18
2022-08-17T21:13:57.866Z,22.25
2022-08-17T21:16:38.819Z,22.16
2022-08-17T21:19:31.112Z,22.12
2022-08-17T21:22:12.419Z,22.14
2022-08-17T21:24:54.000Z,22.14
2022-08-17T21:27:35.934Z,22.11
2022-08-17T21:30:44.474Z,22.11
2022-08-17T21:33:20.865Z,22.15
2022-08-17T21:35:51.866Z,22.15
2022-08-17T21:38:24.222Z,22.26
2022-08-17T21:40:54.146Z,22.21
2022-08-17T21:43:29.340Z,22.25
2022-08-17T21:46:04.455Z,22.23
2022-08-17T21:48:41.453Z,22.16
2022-08-17T21:51:12.093Z,22.19
2022-08-17T21:53:46.341Z,22.15
2022-08-17T21:56:23.295Z,21.90
2022-08-17T21:59:00.559Z,21.81
2022-08-17T22:01:31.694Z,21.70
2022-08-17T22:04:04.380Z,21.74
2022-08-17T22:06:37.514Z,21.61
2022-08-17T22:09:16.318Z,21.49
2022-08-17T22:12:04.489Z,21.46
2022-08-17T22:14:51.543Z,21.41
2022-08-17T22:17:23.674Z,21.38
2022-08-17T22:19:54.106Z,21.31
2022-08-17T22:22:32.970Z,21.22
2022-08-17T22:25:03.565Z,21.22
2022-08-17T22:27:55.467Z,21.15
2022-08-17T22:30:32.568Z,21.07
2022-08-17T22:33:02.262Z,20.98
2022-08-17T22:35:37.597Z,20.87
2022-08-17T22:38:31.623Z,20.98
2022-08-17T22:41:25.624Z,21.00
2022-08-17T22:43:57.396Z,20.92
2022-08-17T22:46:29.161Z,20.97
2022-08-17T22:49:00.354Z,20.91
2022-08-17T22:51:31.295Z,20.76
2022-08-17T22:54:20.677Z,20.81
2022-08-17T22:57:11.476Z,20.70
2022-08-17T22:59:47.674Z,20.73
2022-08-17T23:02:21.750Z,20.70
2022-08-17T23:04:52.433Z,20.64
2022-08-17T23:07:21.987Z,20.59
2022-08-17T23:09:52.129Z,20.67
2022-08-17T23:12:27.147Z,20.63
2022-08-17T23:15:01.616Z,20.48
2022-08-17T23:17:37.065Z,20.46
2022-08-17T23:20:17.542Z,20.42
2022-08-17T23:22:52.194Z,20.38
2022-08-17T23:25:27.963Z,20.32
2022-08-17T23:27:57.431Z,20.25
2022-08-17T23:30:31.166Z,20.24
2022-08-17T23:33:04.458Z,20.28
2022-08-17T23:35:38.946Z,20.26
2022-08-17T23:38:09.382Z,20.24
2022-08-17T23:40:37.758Z,20.25
2022-08-17T23:43:17.365Z,20.08
2022-08-17T23:45:53.320Z,20.15
2022-08-17T23:48:28.581Z,20.15
2022-08-17T23:51:08.671Z,20.18
2022-08-17T23:53:42.747Z,20.15
2022-08-17T23:56:12.144Z,20.12
2022-08-17T23:58:42.199Z,20.03
